createdAt,value
2018-09-19T00:02:26.539Z,72.50
2018-09-19T00:04:55.570Z,72.60
2018-09-19T00:07:23.896Z,72.60
2018-09-19T00:09:52.244Z,72.50
2018-09-19T00:12:20.580Z,72.50
2018-09-19T00:14:48.928Z,72.40
2018-09-19T00:17:17.359Z,72.40
2018-09-19T00:19:45.662Z,72.40
2018-09-19T00:22:14.007Z,72.30
2018-09-19T00:24:43.096Z,72.20
2018-09-19T00:27:11.539Z,72.20
2018-09-19T00:29:39.869Z,72.10
2018-09-19T00:32:08.228Z,72.00
2018-09-19T00:34:36.591Z,71.80
2018-09-19T00:37:04.914Z,71.80
2018-09-19T00:39:34.006Z,71.80
2018-09-19T00:42:02.360Z,71.80
2018-09-19T00:44:30.693Z,71.60
2018-09-19T00:46:59.009Z,71.60
2018-09-19T00:49:27.424Z,71.50
2018-09-19T00:51:55.732Z,71.40
2018-09-19T00:54:24.077Z,71.30
2018-09-19T00:56:52.426Z,71.20
2018-09-19T00:59:20.787Z,71.00
2018-09-19T01:01:49.108Z,70.70
2018-09-19T01:04:17.792Z,70.60
2018-09-19T01:06:46.291Z,70.70
2018-09-19T01:09:14.641Z,70.80
2018-09-19T01:11:43.302Z,70.90
2018-09-19T01:14:11.730Z,70.90
2018-09-19T01:16:40.030Z,70.80
2018-09-19T01:19:08.495Z,70.80
2018-09-19T01:21:36.972Z,70.50
2018-09-19T01:24:05.597Z,70.60
2018-09-19T01:26:33.932Z,70.80
2018-09-19T01:29:02.273Z,71.50
2018-09-19T01:31:30.634Z,71.60
2018-09-19T01:34:05.783Z,71.50
2018-09-19T01:36:34.146Z,71.40
2018-09-19T01:39:02.506Z,71.30
2018-09-19T01:41:30.845Z,71.10
2018-09-19T01:43:59.172Z,71.40
2018-09-19T01:46:27.499Z,71.40
2018-09-19T01:48:55.875Z,71.30
2018-09-19T01:51:24.840Z,71.90
2018-09-19T01:53:53.109Z,70.90
2018-09-19T01:56:21.465Z,70.90
2018-09-19T01:58:49.806Z,70.80
2018-09-19T02:01:18.162Z,70.80
2018-09-19T02:03:46.564Z,71.10
2018-09-19T02:06:14.907Z,71.10
2018-09-19T02:08:43.975Z,71.10
2018-09-19T02:11:12.422Z,71.10
2018-09-19T02:13:40.885Z,71.00
2018-09-19T02:16:09.197Z,71.20
2018-09-19T02:18:37.543Z,71.20
2018-09-19T02:21:05.923Z,71.30
2018-09-19T02:23:34.243Z,71.40
2018-09-19T02:26:02.704Z,71.50
2018-09-19T02:28:31.114Z,71.50
2018-09-19T02:30:59.386Z,71.30
2018-09-19T02:33:27.737Z,71.00
2018-09-19T02:35:56.090Z,70.70
2018-09-19T02:38:24.422Z,70.20
2018-09-19T02:40:52.777Z,70.30
2018-09-19T02:43:21.108Z,70.50
2018-09-19T02:45:49.454Z,70.60
2018-09-19T02:48:17.777Z,70.60
2018-09-19T02:50:46.237Z,70.60
2018-09-19T02:53:14.607Z,70.80
2018-09-19T02:55:42.951Z,70.80
2018-09-19T02:58:11.351Z,70.90
2018-09-19T03:00:39.831Z,70.80
2018-09-19T03:03:08.197Z,70.60
2018-09-19T03:05:37.237Z,70.60
2018-09-19T03:08:05.584Z,70.50
2018-09-19T03:10:33.967Z,70.40
2018-09-19T03:13:02.360Z,70.30
2018-09-19T03:15:30.687Z,70.40
2018-09-19T03:17:59.008Z,70.50
2018-09-19T03:20:27.939Z,70.70
2018-09-19T03:22:56.331Z,70.40
2018-09-19T03:25:24.679Z,70.10
2018-09-19T03:27:53.583Z,70.00
2018-09-19T03:30:21.942Z,70.10
2018-09-19T03:32:50.496Z,70.00
2018-09-19T03:35:18.875Z,70.00
2018-09-19T03:37:47.179Z,70.00
2018-09-19T03:40:15.565Z,69.90
2018-09-19T03:42:43.891Z,69.80
2018-09-19T03:45:12.222Z,69.70
2018-09-19T03:47:40.891Z,69.70
2018-09-19T03:50:09.222Z,69.60
2018-09-19T03:52:37.563Z,69.70
2018-09-19T03:55:05.927Z,69.80
2018-09-19T03:57:34.324Z,70.10
2018-09-19T04:00:02.666Z,71.00
2018-09-19T04:02:30.975Z,70.40
2018-09-19T04:04:59.308Z,70.30
2018-09-19T04:07:27.698Z,70.00
2018-09-19T04:09:56.096Z,69.70
2018-09-19T04:12:24.475Z,69.60
2018-09-19T04:14:52.814Z,69.40
2018-09-19T04:17:21.158Z,69.40
2018-09-19T04:19:49.513Z,69.40
2018-09-19T04:22:18.352Z,69.50
2018-09-19T04:24:46.660Z,69.50
2018-09-19T04:29:49.727Z,69.40
2018-09-19T04:32:18.068Z,69.30
2018-09-19T04:34:46.951Z,69.20
2018-09-19T04:37:15.275Z,68.90
2018-09-19T04:39:43.610Z,68.90
2018-09-19T04:42:18.610Z,68.80
2018-09-19T04:44:46.937Z,69.00
2018-09-19T04:49:42.524Z,69.20
2018-09-19T04:52:10.845Z,69.00
2018-09-19T04:54:39.792Z,70.10
2018-09-19T04:57:08.128Z,70.10
2018-09-19T04:59:36.576Z,70.30
2018-09-19T05:02:05.039Z,70.40
2018-09-19T05:04:33.352Z,70.70
2018-09-19T05:07:01.711Z,70.90
2018-09-19T05:09:30.022Z,71.10
2018-09-19T05:11:58.411Z,71.30
2018-09-19T05:14:26.754Z,71.50
2018-09-19T05:16:55.206Z,71.50
2018-09-19T05:19:23.541Z,71.50
2018-09-19T05:21:51.910Z,71.40
2018-09-19T05:24:20.366Z,71.10
2018-09-19T05:26:48.740Z,70.90
2018-09-19T05:29:17.076Z,70.60
2018-09-19T05:31:45.506Z,70.60
2018-09-19T05:34:13.881Z,70.50
2018-09-19T05:36:42.226Z,70.90
2018-09-19T05:39:10.553Z,70.00
2018-09-19T05:41:38.866Z,70.50
2018-09-19T05:44:07.192Z,69.90
2018-09-19T05:46:35.551Z,70.00
2018-09-19T05:49:03.879Z,70.60
2018-09-19T05:51:32.239Z,70.70
2018-09-19T05:54:00.584Z,70.60
2018-09-19T05:56:29.062Z,70.70
2018-09-19T05:58:57.408Z,70.90
2018-09-19T06:01:25.849Z,71.40
2018-09-19T06:03:54.208Z,71.70
2018-09-19T06:06:22.553Z,72.00
2018-09-19T06:08:50.935Z,72.00
2018-09-19T06:11:19.304Z,72.10
2018-09-19T06:13:47.622Z,72.00
2018-09-19T06:16:16.011Z,72.10
2018-09-19T06:18:44.412Z,72.00
2018-09-19T06:21:12.795Z,72.10
2018-09-19T06:23:41.120Z,72.00
2018-09-19T06:26:09.442Z,71.90
2018-09-19T06:28:37.781Z,71.90
2018-09-19T06:31:06.357Z,71.90
2018-09-19T06:33:34.740Z,72.10
2018-09-19T06:36:03.064Z,72.20
2018-09-19T06:38:31.386Z,72.20
2018-09-19T06:40:59.837Z,72.30
2018-09-19T06:43:28.060Z,72.30
2018-09-19T06:45:56.422Z,72.30
2018-09-19T06:48:24.771Z,72.30
2018-09-19T06:50:53.792Z,72.50
2018-09-19T06:53:22.144Z,73.30
2018-09-19T06:55:50.504Z,72.80
2018-09-19T06:58:18.853Z,72.90
2018-09-19T07:00:47.519Z,72.70
2018-09-19T07:03:15.881Z,73.10
2018-09-19T07:05:44.245Z,73.30
2018-09-19T07:08:12.517Z,73.40
2018-09-19T07:10:41.662Z,73.50
2018-09-19T07:13:10.270Z,73.40
2018-09-19T07:15:39.283Z,73.20
2018-09-19T07:18:08.298Z,73.20
2018-09-19T07:20:36.617Z,73.20
2018-09-19T07:23:05.065Z,73.20
2018-09-19T07:25:33.413Z,73.20
2018-09-19T07:28:01.747Z,73.50
2018-09-19T07:30:30.123Z,73.40
2018-09-19T07:32:58.578Z,73.30
2018-09-19T07:35:26.995Z,73.20
2018-09-19T07:37:55.359Z,72.80
2018-09-19T07:40:24.540Z,72.70
2018-09-19T07:42:52.859Z,73.00
2018-09-19T07:45:21.233Z,72.40
2018-09-19T07:47:49.613Z,72.10
2018-09-19T07:50:17.975Z,71.90
2018-09-19T07:52:46.387Z,71.70
2018-09-19T07:55:16.360Z,71.10
2018-09-19T07:57:45.012Z,70.70
2018-09-19T08:00:13.379Z,70.60
2018-09-19T08:02:41.705Z,71.10
2018-09-19T08:05:10.471Z,70.30
2018-09-19T08:07:38.876Z,69.90
2018-09-19T08:10:07.357Z,69.50
2018-09-19T08:12:35.710Z,69.60
2018-09-19T08:15:04.084Z,69.70
2018-09-19T08:17:32.419Z,68.90
2018-09-19T08:20:00.733Z,68.40
2018-09-19T08:22:29.140Z,68.50
2018-09-19T08:24:57.453Z,67.60
2018-09-19T08:27:25.883Z,65.70
2018-09-19T08:29:54.253Z,66.80
2018-09-19T08:32:22.581Z,66.10
2018-09-19T08:34:50.892Z,66.50
2018-09-19T08:37:20.091Z,65.30
2018-09-19T08:39:48.414Z,66.40
2018-09-19T08:42:16.850Z,64.80
2018-09-19T08:44:45.208Z,65.20
2018-09-19T08:47:13.531Z,64.80
2018-09-19T08:49:41.982Z,64.90
2018-09-19T08:52:10.473Z,65.30
2018-09-19T08:54:38.785Z,63.80
2018-09-19T08:57:07.865Z,63.90
2018-09-19T08:59:36.586Z,63.10
2018-09-19T09:02:04.933Z,62.00
2018-09-19T09:04:34.017Z,61.40
2018-09-19T09:07:02.414Z,62.20
2018-09-19T09:09:30.799Z,60.80
2018-09-19T09:11:59.174Z,59.70
2018-09-19T09:14:27.585Z,59.50
2018-09-19T09:16:55.899Z,57.30
2018-09-19T09:19:24.232Z,57.70
2018-09-19T09:21:53.292Z,58.10
2018-09-19T09:24:21.637Z,57.70
2018-09-19T09:26:50.179Z,59.30
2018-09-19T09:29:19.012Z,58.00
2018-09-19T09:31:47.319Z,54.80
2018-09-19T09:34:15.701Z,50.90
2018-09-19T09:36:44.076Z,51.80
2018-09-19T09:39:12.405Z,51.70
2018-09-19T09:41:44.023Z,50.40
2018-09-19T09:44:12.442Z,50.20
2018-09-19T09:46:47.165Z,51.00
2018-09-19T09:49:15.575Z,51.00
2018-09-19T09:51:43.928Z,48.60
2018-09-19T09:54:12.269Z,47.40
2018-09-19T09:56:40.601Z,50.30
2018-09-19T09:59:08.925Z,48.20
2018-09-19T10:01:37.287Z,46.70
2018-09-19T10:04:14.407Z,44.60
2018-09-19T10:06:42.762Z,44.60
2018-09-19T10:09:11.461Z,42.70
2018-09-19T10:11:39.814Z,42.20
2018-09-19T10:14:08.163Z,40.80
2018-09-19T10:16:36.532Z,41.30
2018-09-19T10:19:05.013Z,40.60
2018-09-19T10:21:33.410Z,39.20
2018-09-19T10:24:01.789Z,39.80
2018-09-19T10:26:30.201Z,38.60
2018-09-19T10:28:58.528Z,39.60
2018-09-19T10:31:26.978Z,38.90
2018-09-19T10:33:55.356Z,39.60
2018-09-19T10:36:23.764Z,39.30
2018-09-19T10:38:52.109Z,39.60
2018-09-19T10:41:21.087Z,39.10
2018-09-19T10:43:49.535Z,40.70
2018-09-19T10:46:17.859Z,40.50
2018-09-19T10:48:46.738Z,38.50
2018-09-19T10:51:15.244Z,37.60
2018-09-19T10:53:43.611Z,35.80
2018-09-19T10:56:12.141Z,36.60
2018-09-19T10:58:41.323Z,36.00
2018-09-19T11:01:09.688Z,37.20
2018-09-19T11:03:38.067Z,35.30
2018-09-19T11:06:06.443Z,35.80
2018-09-19T11:08:34.817Z,34.60
2018-09-19T11:11:03.245Z,34.80
2018-09-19T11:13:31.623Z,34.30
2018-09-19T11:16:00.002Z,33.80
2018-09-19T11:18:28.345Z,34.20
2018-09-19T11:20:57.289Z,33.20
2018-09-19T11:23:25.646Z,32.20
2018-09-19T11:25:53.998Z,32.90
2018-09-19T11:28:22.448Z,32.10
2018-09-19T11:30:50.857Z,32.50
2018-09-19T11:33:19.206Z,32.00
2018-09-19T11:35:47.711Z,30.40
2018-09-19T11:38:16.061Z,30.30
2018-09-19T11:40:44.419Z,30.00
2018-09-19T11:43:12.777Z,31.90
2018-09-19T11:45:41.129Z,30.80
2018-09-19T11:48:09.486Z,29.40
2018-09-19T11:50:37.801Z,29.40
2018-09-19T11:53:10.431Z,29.20
2018-09-19T11:55:38.755Z,28.60
2018-09-19T11:58:07.092Z,28.80
2018-09-19T12:00:35.445Z,28.40
2018-09-19T12:03:03.809Z,28.40
2018-09-19T12:05:32.185Z,28.80
2018-09-19T12:08:00.583Z,28.30
2018-09-19T12:10:28.904Z,28.00
2018-09-19T12:12:57.265Z,28.00
2018-09-19T12:15:25.635Z,28.40
2018-09-19T12:17:53.979Z,28.20
2018-09-19T12:20:22.297Z,28.10
2018-09-19T12:22:51.509Z,28.40
2018-09-19T12:25:19.863Z,27.70
2018-09-19T12:27:48.204Z,28.10
2018-09-19T12:30:16.538Z,28.60
2018-09-19T12:32:44.995Z,28.40
2018-09-19T12:35:13.479Z,27.60
2018-09-19T12:37:41.838Z,27.00
2018-09-19T12:40:10.201Z,27.00
2018-09-19T12:42:39.179Z,26.90
2018-09-19T12:45:07.587Z,27.70
2018-09-19T12:47:35.947Z,27.10
2018-09-19T12:50:04.406Z,26.90
2018-09-19T12:52:33.244Z,27.20
2018-09-19T12:55:01.649Z,27.00
2018-09-19T12:57:29.972Z,26.90
2018-09-19T12:59:58.317Z,27.00
2018-09-19T13:02:26.689Z,27.00
2018-09-19T13:04:55.129Z,27.60
2018-09-19T13:07:23.522Z,26.50
2018-09-19T13:09:52.594Z,26.60
2018-09-19T13:12:20.956Z,26.50
2018-09-19T13:14:49.462Z,26.30
2018-09-19T13:17:17.833Z,26.10
2018-09-19T13:19:46.260Z,26.80
2018-09-19T13:22:14.595Z,27.10
2018-09-19T13:24:42.929Z,26.70
2018-09-19T13:27:11.744Z,26.10
2018-09-19T13:29:40.069Z,26.10
2018-09-19T13:32:08.442Z,25.90
2018-09-19T13:34:36.755Z,26.00
2018-09-19T13:37:05.102Z,27.00
2018-09-19T13:39:33.484Z,26.90
2018-09-19T13:42:01.848Z,27.00
2018-09-19T13:44:30.212Z,26.70
2018-09-19T13:46:58.575Z,27.10
2018-09-19T13:49:33.316Z,26.30
2018-09-19T13:52:01.664Z,26.50
2018-09-19T13:54:30.016Z,26.30
2018-09-19T13:56:58.430Z,26.20
2018-09-19T13:59:26.919Z,26.20
2018-09-19T14:01:59.240Z,25.50
2018-09-19T14:04:27.629Z,26.60
2018-09-19T14:06:56.072Z,25.60
2018-09-19T14:09:24.522Z,25.20
2018-09-19T14:11:52.838Z,25.80
2018-09-19T14:14:21.195Z,26.00
2018-09-19T14:16:49.984Z,26.30
2018-09-19T14:19:19.420Z,25.80
2018-09-19T14:21:47.807Z,26.20
2018-09-19T14:24:16.495Z,26.00
2018-09-19T14:26:44.846Z,26.40
2018-09-19T14:29:13.181Z,26.80
2018-09-19T14:31:42.431Z,25.40
2018-09-19T14:34:12.565Z,26.50
2018-09-19T14:36:41.115Z,26.00
2018-09-19T14:39:09.518Z,26.10
2018-09-19T14:41:37.905Z,25.80
2018-09-19T14:44:07.647Z,25.90
2018-09-19T14:46:36.002Z,26.20
2018-09-19T14:49:04.379Z,25.60
2018-09-19T14:51:32.840Z,25.70
2018-09-19T14:54:01.208Z,25.20
2018-09-19T14:56:30.127Z,25.90
2018-09-19T14:58:58.493Z,26.00
2018-09-19T15:01:26.831Z,25.50
2018-09-19T15:03:55.167Z,25.70
2018-09-19T15:06:23.593Z,25.90
2018-09-19T15:08:51.939Z,26.20
2018-09-19T15:11:20.842Z,26.50
2018-09-19T15:13:49.221Z,26.20
2018-09-19T15:16:17.607Z,26.40
2018-09-19T15:18:45.973Z,26.90
2018-09-19T15:21:14.317Z,26.00
2018-09-19T15:23:42.655Z,25.90
2018-09-19T15:26:10.984Z,26.20
2018-09-19T15:28:40.155Z,25.80
2018-09-19T15:31:08.515Z,25.80
2018-09-19T15:33:37.551Z,26.50
2018-09-19T15:36:06.160Z,26.90
2018-09-19T15:38:34.507Z,26.60
2018-09-19T15:41:03.636Z,26.80
2018-09-19T15:43:32.104Z,26.60
2018-09-19T15:46:01.533Z,26.60
2018-09-19T15:48:30.026Z,26.50
2018-09-19T15:50:58.297Z,27.00
2018-09-19T15:53:30.638Z,27.10
2018-09-19T15:55:59.312Z,27.20
2018-09-19T15:58:27.701Z,27.20
2018-09-19T16:00:56.038Z,27.10
2018-09-19T16:03:24.964Z,27.10
2018-09-19T16:05:53.371Z,27.10
2018-09-19T16:08:21.734Z,26.90
2018-09-19T16:10:50.096Z,26.80
2018-09-19T16:13:18.457Z,27.00
2018-09-19T16:15:46.876Z,26.70
2018-09-19T16:18:15.230Z,26.70
2018-09-19T16:20:44.057Z,26.70
2018-09-19T16:23:12.376Z,27.80
2018-09-19T16:25:40.808Z,27.30
2018-09-19T16:28:09.126Z,27.60
2018-09-19T16:30:37.480Z,27.40
2018-09-19T16:33:05.916Z,27.90
2018-09-19T16:35:34.239Z,28.10
2018-09-19T16:38:03.326Z,28.00
2018-09-19T16:40:31.662Z,28.20
2018-09-19T16:43:00.006Z,29.10
2018-09-19T16:45:28.458Z,29.50
2018-09-19T16:47:56.706Z,29.60
2018-09-19T16:50:25.041Z,29.70
2018-09-19T16:52:53.543Z,29.30
2018-09-19T16:55:21.863Z,29.50
2018-09-19T16:57:51.490Z,29.40
2018-09-19T17:00:19.853Z,29.60
2018-09-19T17:02:48.199Z,29.90
2018-09-19T17:05:16.671Z,30.50
2018-09-19T17:07:45.040Z,30.60
2018-09-19T17:10:13.463Z,31.00
2018-09-19T17:12:41.816Z,31.50
2018-09-19T17:15:10.212Z,33.00
2018-09-19T17:17:38.558Z,34.30
2018-09-19T17:20:07.228Z,35.50
2018-09-19T17:22:35.684Z,36.00
2018-09-19T17:25:04.077Z,36.00
2018-09-19T17:27:32.484Z,36.00
2018-09-19T17:30:00.811Z,36.10
2018-09-19T17:32:29.190Z,36.40
2018-09-19T17:34:58.105Z,36.80
2018-09-19T17:37:26.478Z,36.70
2018-09-19T17:39:54.838Z,36.60
2018-09-19T17:42:23.275Z,36.80
2018-09-19T17:44:51.620Z,36.90
2018-09-19T17:47:19.987Z,37.40
2018-09-19T17:49:48.478Z,38.00
2018-09-19T17:52:16.831Z,38.50
2018-09-19T17:54:45.240Z,38.80
2018-09-19T17:57:13.640Z,38.90
2018-09-19T17:59:41.990Z,39.20
2018-09-19T18:02:10.351Z,39.80
2018-09-19T18:04:38.756Z,39.80
2018-09-19T18:07:07.135Z,39.90
2018-09-19T18:09:36.180Z,40.20
2018-09-19T18:12:04.540Z,39.70
2018-09-19T18:14:32.871Z,39.50
2018-09-19T18:17:01.224Z,40.00
2018-09-19T18:19:29.581Z,40.90
2018-09-19T18:21:57.953Z,41.90
2018-09-19T18:24:26.334Z,42.90
2018-09-19T18:26:54.707Z,43.70
2018-09-19T18:29:23.045Z,42.40
2018-09-19T18:31:51.528Z,42.30
2018-09-19T18:34:20.157Z,42.50
2018-09-19T18:36:48.515Z,42.90
2018-09-19T18:39:16.868Z,43.30
2018-09-19T18:41:45.267Z,43.20
2018-09-19T18:44:13.696Z,43.20
2018-09-19T18:46:42.440Z,43.20
2018-09-19T18:49:10.877Z,43.10
2018-09-19T18:51:39.221Z,43.00
2018-09-19T18:54:08.261Z,43.80
2018-09-19T18:56:36.825Z,43.40
2018-09-19T18:59:05.208Z,43.90
2018-09-19T19:01:33.788Z,44.00
2018-09-19T19:04:02.076Z,44.20
2018-09-19T19:06:30.421Z,44.30
2018-09-19T19:08:58.787Z,44.80
2018-09-19T19:11:27.151Z,45.40
2018-09-19T19:13:55.564Z,45.80
2018-09-19T19:16:23.946Z,46.10
2018-09-19T19:18:52.359Z,46.30
2018-09-19T19:21:20.649Z,47.00
2018-09-19T19:23:55.565Z,47.50
2018-09-19T19:26:23.997Z,48.20
2018-09-19T19:28:52.341Z,48.50
2018-09-19T19:31:20.713Z,48.50
2018-09-19T19:33:49.069Z,48.70
2018-09-19T19:36:17.457Z,48.60
2018-09-19T19:38:45.917Z,48.70
2018-09-19T19:41:14.416Z,48.90
2018-09-19T19:43:42.780Z,49.20
2018-09-19T19:46:11.153Z,48.90
2018-09-19T19:48:39.556Z,49.00
2018-09-19T19:51:07.964Z,49.30
2018-09-19T19:53:36.340Z,49.70
2018-09-19T19:56:04.735Z,50.10
2018-09-19T19:58:33.084Z,50.70
2018-09-19T20:01:01.464Z,51.20
2018-09-19T20:03:29.952Z,51.70
2018-09-19T20:05:58.288Z,51.70
2018-09-19T20:08:26.642Z,51.60
2018-09-19T20:10:55.003Z,51.60
2018-09-19T20:13:23.624Z,51.60
2018-09-19T20:15:51.993Z,51.60
2018-09-19T20:18:20.351Z,51.60
2018-09-19T20:20:48.741Z,52.10
2018-09-19T20:23:17.137Z,52.10
2018-09-19T20:25:45.556Z,52.20
2018-09-19T20:28:13.941Z,52.40
2018-09-19T20:30:42.312Z,52.60
2018-09-19T20:33:10.670Z,52.70
2018-09-19T20:35:39.023Z,52.80
2018-09-19T20:38:07.396Z,53.60
2018-09-19T20:40:35.742Z,53.10
2018-09-19T20:43:04.122Z,53.70
2018-09-19T20:45:32.521Z,54.10
2018-09-19T20:48:00.852Z,54.20
2018-09-19T20:50:29.231Z,54.50
2018-09-19T20:52:57.644Z,54.70
2018-09-19T20:55:26.716Z,55.00
2018-09-19T20:57:55.081Z,55.30
2018-09-19T21:00:23.436Z,55.10
2018-09-19T21:02:51.815Z,55.10
2018-09-19T21:05:20.173Z,55.20
2018-09-19T21:07:48.575Z,55.20
2018-09-19T21:10:17.012Z,55.20
2018-09-19T21:12:45.376Z,55.40
2018-09-19T21:15:13.764Z,55.50
2018-09-19T21:17:42.102Z,55.70
2018-09-19T21:20:10.436Z,55.70
2018-09-19T21:22:38.839Z,55.80
2018-09-19T21:25:07.168Z,56.10
2018-09-19T21:27:35.560Z,56.30
2018-09-19T21:30:04.007Z,56.40
2018-09-19T21:32:32.368Z,56.70
2018-09-19T21:35:00.724Z,57.10
2018-09-19T21:37:29.325Z,57.50
2018-09-19T21:39:57.795Z,58.00
2018-09-19T21:42:26.261Z,58.50
2018-09-19T21:44:54.584Z,58.30
2018-09-19T21:47:22.942Z,58.30
2018-09-19T21:49:51.282Z,58.30
2018-09-19T21:52:19.611Z,58.30
2018-09-19T21:54:48.068Z,58.30
2018-09-19T21:57:16.420Z,58.30
2018-09-19T21:59:44.851Z,58.20
2018-09-19T22:02:15.193Z,58.30
2018-09-19T22:04:43.540Z,58.70
2018-09-19T22:07:11.869Z,59.90
2018-09-19T22:09:40.246Z,59.80
2018-09-19T22:12:10.192Z,59.80
2018-09-19T22:14:39.599Z,59.80
2018-09-19T22:17:08.024Z,59.70
2018-09-19T22:19:36.537Z,60.60
2018-09-19T22:22:04.961Z,61.10
2018-09-19T22:24:33.751Z,60.80
2018-09-19T22:27:08.717Z,60.50
2018-09-19T22:29:37.061Z,62.20
2018-09-19T22:32:05.517Z,64.00
2018-09-19T22:34:33.845Z,65.40
2018-09-19T22:37:02.235Z,64.60
2018-09-19T22:39:30.565Z,64.80
2018-09-19T22:41:58.940Z,64.60
2018-09-19T22:44:28.099Z,64.20
2018-09-19T22:46:56.417Z,63.80
2018-09-19T22:49:24.763Z,63.20
2018-09-19T22:51:53.099Z,62.90
2018-09-19T22:54:21.428Z,62.60
2018-09-19T22:56:49.852Z,62.40
2018-09-19T22:59:18.171Z,62.30
2018-09-19T23:01:47.206Z,62.20
2018-09-19T23:04:15.619Z,62.30
2018-09-19T23:06:43.969Z,63.00
2018-09-19T23:09:12.407Z,63.10
2018-09-19T23:11:40.730Z,64.20
2018-09-19T23:14:09.081Z,65.60
2018-09-19T23:16:37.413Z,65.90
2018-09-19T23:19:05.799Z,65.70
2018-09-19T23:21:34.165Z,65.20
2018-09-19T23:24:02.508Z,64.90
2018-09-19T23:26:30.928Z,64.50
2018-09-19T23:28:59.288Z,64.60
2018-09-19T23:31:27.694Z,64.60
2018-09-19T23:33:56.019Z,64.80
2018-09-19T23:36:24.351Z,65.00
2018-09-19T23:38:52.718Z,64.90
2018-09-19T23:41:21.131Z,65.20
2018-09-19T23:43:49.595Z,64.30
2018-09-19T23:46:18.119Z,64.20
2018-09-19T23:48:46.447Z,65.20
2018-09-19T23:51:15.808Z,65.30
2018-09-19T23:53:44.155Z,65.40
2018-09-19T23:56:12.507Z,65.30
2018-09-19T23:58:41.025Z,65.50
